createdAt,value
2019-06-08T00:00:39.408Z,13.20
2019-06-08T00:03:09.450Z,13.08
2019-06-08T00:05:40.936Z,13.48
2019-06-08T00:08:13.014Z,13.20
2019-06-08T00:10:45.892Z,13.25
2019-06-08T00:13:17.041Z,12.98
2019-06-08T00:15:54.165Z,12.58
2019-06-08T00:18:26.034Z,13.32
2019-06-08T00:23:25.600Z,13.28
2019-06-08T00:26:11.444Z,13.25
2019-06-08T00:28:41.458Z,12.80
2019-06-08T00:31:29.062Z,13.15
2019-06-08T00:34:04.607Z,12.43
2019-06-08T00:36:36.266Z,12.93
2019-06-08T00:39:09.494Z,13.10
2019-06-08T00:41:40.053Z,13.32
2019-06-08T00:44:17.518Z,13.03
2019-06-08T00:46:47.666Z,13.03
2019-06-08T00:49:24.704Z,12.60
2019-06-08T00:51:55.171Z,13.43
2019-06-08T00:54:29.753Z,12.58
2019-06-08T00:57:19.689Z,12.68
2019-06-08T00:59:52.634Z,12.88
2019-06-08T01:02:28.888Z,12.80
2019-06-08T01:05:03.074Z,12.43
2019-06-08T01:07:42.034Z,13.30
2019-06-08T01:10:13.003Z,13.08
2019-06-08T01:12:43.333Z,12.03
2019-06-08T01:15:23.749Z,12.15
2019-06-08T01:18:02.224Z,12.82
2019-06-08T01:22:58.158Z,12.37
2019-06-08T01:25:34.984Z,12.55
2019-06-08T01:28:10.995Z,12.60
2019-06-08T01:30:40.894Z,13.48
2019-06-08T01:33:10.881Z,13.68
2019-06-08T01:35:45.995Z,13.05
2019-06-08T01:38:16.262Z,13.95
2019-06-08T01:40:53.597Z,13.30
2019-06-08T01:43:29.596Z,13.60
2019-06-08T01:45:59.728Z,13.22
2019-06-08T01:48:30.269Z,13.05
2019-06-08T01:51:00.667Z,13.05
2019-06-08T01:53:34.519Z,13.75
2019-06-08T01:56:09.787Z,13.93
2019-06-08T01:58:50.019Z,13.75
2019-06-08T02:01:21.582Z,14.73
2019-06-08T02:03:51.846Z,14.60
2019-06-08T02:06:24.198Z,14.20
2019-06-08T02:08:54.350Z,14.53
2019-06-08T02:11:26.702Z,14.35
2019-06-08T02:13:56.901Z,13.97
2019-06-08T02:16:27.379Z,14.15
2019-06-08T02:18:57.713Z,14.78
2019-06-08T02:21:28.836Z,14.68
2019-06-08T02:24:05.791Z,14.65
2019-06-08T02:26:36.409Z,14.68
2019-06-08T02:29:10.855Z,14.43
2019-06-08T02:31:41.975Z,14.50
2019-06-08T02:34:12.138Z,14.90
2019-06-08T02:36:42.044Z,14.65
2019-06-08T02:39:17.415Z,14.68
2019-06-08T02:41:47.326Z,14.70
2019-06-08T02:44:20.169Z,13.95
2019-06-08T02:46:53.147Z,15.98
2019-06-08T02:49:26.417Z,14.23
2019-06-08T02:52:00.347Z,14.55
2019-06-08T02:54:35.404Z,14.15
2019-06-08T02:57:06.540Z,15.18
2019-06-08T02:59:42.765Z,14.20
2019-06-08T03:02:14.390Z,13.85
2019-06-08T03:04:44.374Z,14.20
2019-06-08T03:07:20.457Z,13.30
2019-06-08T03:09:58.121Z,14.15
2019-06-08T03:12:28.330Z,14.15
2019-06-08T03:15:00.406Z,14.00
2019-06-08T03:17:33.415Z,13.93
2019-06-08T03:20:05.473Z,14.45
2019-06-08T03:22:37.150Z,14.07
2019-06-08T03:25:07.661Z,14.05
2019-06-08T03:27:44.014Z,13.70
2019-06-08T03:30:18.947Z,13.72
2019-06-08T03:32:55.973Z,14.15
2019-06-08T03:35:28.367Z,14.03
2019-06-08T03:38:00.352Z,13.98
2019-06-08T03:40:45.169Z,14.20
2019-06-08T03:43:14.748Z,14.25
2019-06-08T03:45:45.376Z,13.30
2019-06-08T03:48:15.676Z,13.45
2019-06-08T03:53:24.692Z,13.80
2019-06-08T03:58:34.108Z,14.65
2019-06-08T04:01:03.536Z,13.80
2019-06-08T04:03:33.870Z,14.30
2019-06-08T04:06:04.471Z,14.58
2019-06-08T04:08:40.852Z,13.98
2019-06-08T04:11:11.451Z,13.70
2019-06-08T04:13:42.076Z,13.78
2019-06-08T04:16:13.266Z,14.20
2019-06-08T04:18:53.690Z,13.70
2019-06-08T04:21:28.464Z,13.30
2019-06-08T04:24:04.883Z,13.25
2019-06-08T04:26:38.494Z,14.40
2019-06-08T04:29:09.403Z,13.58
2019-06-08T04:31:43.656Z,13.32
2019-06-08T04:34:23.312Z,13.75
2019-06-08T04:36:54.846Z,13.70
2019-06-08T04:39:26.456Z,13.68
2019-06-08T04:41:58.039Z,13.03
2019-06-08T04:44:29.589Z,13.98
2019-06-08T04:47:05.985Z,13.53
2019-06-08T04:49:35.908Z,13.45
2019-06-08T04:52:10.599Z,13.78
2019-06-08T04:54:40.838Z,13.38
2019-06-08T04:57:14.023Z,13.72
2019-06-08T04:59:55.032Z,13.80
2019-06-08T05:02:27.403Z,13.32
2019-06-08T05:05:01.807Z,13.80
2019-06-08T05:07:36.171Z,13.48
2019-06-08T05:10:12.034Z,13.68
2019-06-08T05:15:23.058Z,13.90
2019-06-08T05:17:58.628Z,14.05
2019-06-08T05:20:39.079Z,12.85
2019-06-08T05:23:03.119Z,13.48
2019-06-08T05:25:39.434Z,13.78
2019-06-08T05:28:10.740Z,13.70
2019-06-08T05:30:41.261Z,13.53
2019-06-08T05:33:28.058Z,14.83
2019-06-08T05:36:02.758Z,14.05
2019-06-08T05:38:33.005Z,13.45
2019-06-08T05:41:03.010Z,13.68
2019-06-08T05:43:34.481Z,13.05
2019-06-08T05:46:09.021Z,14.30
2019-06-08T05:48:41.899Z,13.10
2019-06-08T05:51:17.556Z,13.22
2019-06-08T05:53:55.541Z,13.80
2019-06-08T05:56:25.525Z,13.70
2019-06-08T05:58:55.895Z,14.30
2019-06-08T06:01:25.860Z,13.93
2019-06-08T06:03:56.948Z,14.00
2019-06-08T06:06:33.058Z,14.87
2019-06-08T06:09:10.594Z,14.25
2019-06-08T06:11:46.867Z,15.00
2019-06-08T06:14:19.951Z,15.93
2019-06-08T06:16:51.804Z,16.20
2019-06-08T06:19:24.481Z,16.45
2019-06-08T06:22:00.593Z,16.65
2019-06-08T06:24:32.593Z,18.17
2019-06-08T06:33:17.058Z,17.40
2019-06-08T06:38:27.204Z,17.85
2019-06-08T06:41:01.635Z,17.48
2019-06-08T06:43:32.116Z,18.02
2019-06-08T06:46:05.645Z,17.42
2019-06-08T06:48:36.257Z,18.45
2019-06-08T06:51:06.222Z,17.70
2019-06-08T06:53:37.649Z,17.98
2019-06-08T06:56:07.901Z,17.50
2019-06-08T06:58:37.906Z,17.82
2019-06-08T07:01:09.583Z,17.77
2019-06-08T07:06:08.875Z,17.20
2019-06-08T07:08:41.926Z,17.40
2019-06-08T07:11:12.375Z,18.30
2019-06-08T07:16:18.461Z,17.52
2019-06-08T07:18:48.296Z,17.42
2019-06-08T07:21:24.553Z,18.37
2019-06-08T07:24:04.403Z,17.32
2019-06-08T07:26:32.663Z,17.02
2019-06-08T07:29:04.340Z,17.45
2019-06-08T07:31:35.664Z,17.37
2019-06-08T07:34:07.154Z,17.65
2019-06-08T07:36:39.718Z,17.73
2019-06-08T07:39:09.866Z,18.65
2019-06-08T07:44:10.773Z,18.17
2019-06-08T07:46:46.986Z,18.12
2019-06-08T07:49:24.777Z,18.92
2019-06-08T07:52:07.532Z,18.67
2019-06-08T07:54:30.291Z,18.77
2019-06-08T07:57:01.708Z,19.30
2019-06-08T08:02:10.381Z,19.07
2019-06-08T08:05:00.006Z,18.85
2019-06-08T08:07:44.687Z,19.37
2019-06-08T08:10:18.265Z,18.98
2019-06-08T08:12:49.221Z,19.15
2019-06-08T08:15:20.695Z,18.52
2019-06-08T08:17:52.295Z,18.87
2019-06-08T08:22:58.890Z,19.00
2019-06-08T08:25:28.081Z,18.67
2019-06-08T08:27:59.343Z,18.62
2019-06-08T08:30:29.418Z,18.85
2019-06-08T08:33:02.702Z,18.82
2019-06-08T08:38:04.041Z,19.27
2019-06-08T08:43:02.996Z,18.90
2019-06-08T08:45:32.878Z,18.60
2019-06-08T08:48:20.452Z,18.23
2019-06-08T08:50:34.796Z,18.75
2019-06-08T08:53:04.764Z,19.37
2019-06-08T08:55:35.034Z,18.15
2019-06-08T08:58:05.256Z,19.12
2019-06-08T09:00:35.118Z,19.65
2019-06-08T09:03:24.331Z,19.37
2019-06-08T09:05:38.305Z,18.60
2019-06-08T09:08:08.797Z,19.70
2019-06-08T09:10:39.115Z,19.73
2019-06-08T09:13:12.136Z,20.10
2019-06-08T09:18:10.133Z,19.87
2019-06-08T09:20:41.454Z,19.42
2019-06-08T09:23:16.293Z,19.07
2019-06-08T09:25:43.247Z,20.57
2019-06-08T09:28:13.422Z,20.37
2019-06-08T09:30:43.384Z,20.35
2019-06-08T09:33:13.388Z,20.10
2019-06-08T09:35:43.678Z,20.27
2019-06-08T09:38:13.737Z,20.50
2019-06-08T09:40:43.764Z,19.32
2019-06-08T09:43:14.170Z,19.77
2019-06-08T09:45:44.293Z,20.35
2019-06-08T09:48:14.421Z,20.35
2019-06-08T09:50:44.484Z,19.77
2019-06-08T09:53:24.300Z,19.85
2019-06-08T09:55:48.150Z,19.75
2019-06-08T09:58:18.837Z,20.23
2019-06-08T10:00:49.026Z,19.40
2019-06-08T10:03:19.285Z,19.12
2019-06-08T10:05:50.204Z,18.73
2019-06-08T10:08:20.907Z,19.37
2019-06-08T10:10:51.692Z,20.27
2019-06-08T10:13:21.997Z,18.92
2019-06-08T10:15:52.089Z,18.80
2019-06-08T10:18:22.564Z,18.82
2019-06-08T10:20:52.952Z,19.70
2019-06-08T10:23:30.735Z,20.55
2019-06-08T10:28:25.023Z,19.67
2019-06-08T10:30:55.945Z,20.72
2019-06-08T10:33:28.181Z,20.25
2019-06-08T10:36:01.750Z,19.37
2019-06-08T10:38:30.498Z,19.67
2019-06-08T10:41:14.822Z,18.73
2019-06-08T10:43:38.683Z,19.57
2019-06-08T10:46:16.099Z,20.20
2019-06-08T10:48:40.971Z,19.85
2019-06-08T10:51:12.961Z,20.10
2019-06-08T10:53:49.487Z,20.32
2019-06-08T10:56:18.909Z,20.23
2019-06-08T10:58:49.801Z,19.17
2019-06-08T11:01:20.390Z,21.42
2019-06-08T11:03:50.468Z,20.02
2019-06-08T11:06:21.573Z,20.17
2019-06-08T11:08:51.641Z,21.45
2019-06-08T11:11:21.559Z,20.60
2019-06-08T11:13:51.580Z,20.80
2019-06-08T11:16:21.842Z,20.82
2019-06-08T11:18:51.899Z,21.55
2019-06-08T11:21:22.028Z,21.10
2019-06-08T11:24:05.749Z,21.52
2019-06-08T11:26:24.588Z,21.10
2019-06-08T11:28:54.900Z,21.07
2019-06-08T11:31:24.825Z,22.10
2019-06-08T11:33:55.225Z,21.73
2019-06-08T11:36:28.045Z,21.85
2019-06-08T11:41:28.225Z,22.70
2019-06-08T11:44:01.038Z,23.10
2019-06-08T11:46:30.097Z,23.10
2019-06-08T11:49:01.139Z,24.07
2019-06-08T11:51:32.466Z,22.40
2019-06-08T11:54:02.993Z,23.10
2019-06-08T11:56:33.092Z,22.73
2019-06-08T11:59:03.327Z,22.42
2019-06-08T12:01:33.311Z,22.40
2019-06-08T12:04:03.643Z,22.20
2019-06-08T12:06:37.156Z,22.58
2019-06-08T12:09:09.515Z,22.58
2019-06-08T12:11:39.572Z,22.87
2019-06-08T12:14:11.091Z,20.88
2019-06-08T12:19:15.043Z,20.05
2019-06-08T12:21:42.186Z,19.70
2019-06-08T12:24:12.407Z,19.62
2019-06-08T12:26:42.435Z,18.50
2019-06-08T12:29:13.475Z,18.57
2019-06-08T12:31:44.277Z,17.92
2019-06-08T12:34:15.546Z,17.92
2019-06-08T12:36:48.060Z,17.55
2019-06-08T12:39:19.771Z,16.77
2019-06-08T12:41:50.089Z,15.98
2019-06-08T12:44:22.176Z,15.98
2019-06-08T12:49:22.019Z,15.80
2019-06-08T12:51:52.355Z,15.32
2019-06-08T12:54:22.357Z,14.00
2019-06-08T12:56:52.270Z,14.75
2019-06-08T12:59:23.202Z,13.98
2019-06-08T13:01:53.436Z,13.90
2019-06-08T13:04:24.006Z,13.98
2019-06-08T13:06:54.987Z,13.55
2019-06-08T13:09:24.955Z,13.22
2019-06-08T13:11:57.040Z,13.08
2019-06-08T13:14:28.430Z,12.53
2019-06-08T13:17:01.179Z,11.85
2019-06-08T13:22:00.606Z,12.18
2019-06-08T13:24:30.577Z,11.57
2019-06-08T13:27:00.585Z,11.83
2019-06-08T13:29:30.553Z,10.75
2019-06-08T13:32:01.581Z,11.00
2019-06-08T13:34:32.763Z,10.48
2019-06-08T13:37:02.727Z,9.80
2019-06-08T13:39:32.791Z,9.50
2019-06-08T13:42:02.887Z,9.00
2019-06-08T13:44:32.938Z,8.43
2019-06-08T13:47:02.825Z,8.10
2019-06-08T13:49:32.899Z,8.15
2019-06-08T13:52:02.723Z,7.80
2019-06-08T13:54:32.781Z,7.45
2019-06-08T13:57:02.636Z,7.72
2019-06-08T13:59:32.973Z,7.35
2019-06-08T14:02:03.025Z,6.83
2019-06-08T14:04:33.709Z,6.72
2019-06-08T14:07:04.786Z,6.10
2019-06-08T14:09:34.963Z,6.08
2019-06-08T14:12:04.987Z,5.67
2019-06-08T14:14:35.043Z,5.65
2019-06-08T14:17:04.996Z,5.10
2019-06-08T14:19:34.999Z,5.20
2019-06-08T14:22:06.019Z,5.67
2019-06-08T14:24:37.746Z,4.70
2019-06-08T14:27:08.309Z,4.70
2019-06-08T14:29:38.941Z,4.60
2019-06-08T14:32:09.489Z,4.75
2019-06-08T14:34:39.523Z,4.80
2019-06-08T14:37:09.610Z,4.42
2019-06-08T14:39:40.003Z,3.70
2019-06-08T14:42:10.093Z,4.05
2019-06-08T14:44:40.065Z,4.08
2019-06-08T14:47:16.059Z,3.70
2019-06-08T14:49:48.550Z,3.60
2019-06-08T14:52:19.324Z,3.42
2019-06-08T14:57:21.271Z,3.80
2019-06-08T14:59:51.418Z,3.30
2019-06-08T15:02:23.494Z,3.12
2019-06-08T15:04:53.753Z,3.45
2019-06-08T15:07:26.367Z,2.98
2019-06-08T15:09:59.094Z,2.87
2019-06-08T15:12:31.421Z,3.00
2019-06-08T15:17:32.353Z,2.98
2019-06-08T15:20:03.315Z,2.80
2019-06-08T15:22:33.336Z,2.90
2019-06-08T15:25:03.483Z,2.80
2019-06-08T15:27:33.556Z,2.50
2019-06-08T15:30:03.715Z,2.80
2019-06-08T15:32:35.739Z,2.30
2019-06-08T15:35:08.034Z,2.20
2019-06-08T15:37:40.928Z,2.75
2019-06-08T15:40:11.374Z,2.45
2019-06-08T15:42:41.609Z,2.62
2019-06-08T15:45:11.826Z,2.50
2019-06-08T15:47:42.101Z,2.72
2019-06-08T15:50:12.879Z,2.42
2019-06-08T15:52:43.741Z,2.20
2019-06-08T15:55:14.124Z,2.00
2019-06-08T15:57:44.132Z,2.05
2019-06-08T16:00:14.782Z,2.10
2019-06-08T16:02:45.150Z,2.00
2019-06-08T16:05:15.881Z,2.15
2019-06-08T16:07:47.222Z,2.20
2019-06-08T16:10:17.850Z,2.15
2019-06-08T16:12:51.684Z,2.00
2019-06-08T16:15:22.608Z,1.80
2019-06-08T16:17:52.782Z,1.90
2019-06-08T16:20:23.360Z,2.02
2019-06-08T16:22:53.825Z,2.00
2019-06-08T16:25:25.575Z,1.75
2019-06-08T16:30:27.144Z,2.20
2019-06-08T16:33:06.306Z,2.00
2019-06-08T16:35:37.475Z,1.80
2019-06-08T16:38:07.931Z,1.75
2019-06-08T16:40:44.569Z,2.02
2019-06-08T16:43:17.621Z,2.27
2019-06-08T16:45:56.058Z,2.20
2019-06-08T16:48:26.541Z,2.10
2019-06-08T16:53:34.112Z,2.30
2019-06-08T16:56:06.552Z,2.80
2019-06-08T16:58:38.251Z,2.60
2019-06-08T17:03:43.359Z,2.42
2019-06-08T17:06:13.844Z,2.75
2019-06-08T17:08:45.759Z,2.72
2019-06-08T17:13:47.641Z,3.10
2019-06-08T17:16:18.137Z,3.27
2019-06-08T17:18:48.724Z,7.80
2019-06-08T17:21:19.317Z,10.32
2019-06-08T17:23:50.224Z,5.85
2019-06-08T17:26:22.237Z,8.08
2019-06-08T17:28:54.232Z,6.83
2019-06-08T17:31:27.759Z,8.20
2019-06-08T17:33:58.090Z,8.70
2019-06-08T17:36:28.906Z,9.75
2019-06-08T17:38:59.839Z,11.22
2019-06-08T17:41:31.912Z,9.65
2019-06-08T17:44:02.458Z,9.10
2019-06-08T17:46:34.727Z,10.00
2019-06-08T17:49:08.340Z,7.67
2019-06-08T17:51:41.894Z,7.60
2019-06-08T17:54:15.609Z,7.62
2019-06-08T17:56:45.845Z,7.87
2019-06-08T17:59:16.079Z,6.65
2019-06-08T18:01:47.689Z,6.92
2019-06-08T18:04:18.022Z,6.35
2019-06-08T18:06:50.366Z,5.97
2019-06-08T18:09:21.479Z,6.05
2019-06-08T18:11:51.891Z,5.72
2019-06-08T18:14:22.326Z,5.55
2019-06-08T18:16:52.730Z,4.92
2019-06-08T18:19:28.429Z,4.67
2019-06-08T18:22:04.043Z,4.85
2019-06-08T18:24:31.222Z,5.10
2019-06-08T18:27:01.400Z,4.53
2019-06-08T18:29:31.892Z,4.70
2019-06-08T18:32:03.086Z,4.22
2019-06-08T18:34:34.801Z,4.00
2019-06-08T18:37:08.544Z,4.12
2019-06-08T18:39:41.737Z,3.70
2019-06-08T18:42:12.748Z,3.85
2019-06-08T18:44:48.586Z,3.60
2019-06-08T18:47:21.419Z,3.90
2019-06-08T18:49:59.890Z,3.55
2019-06-08T18:52:31.869Z,3.37
2019-06-08T18:58:27.783Z,3.62
2019-06-08T19:13:21.739Z,2.77
2019-06-08T19:18:31.122Z,2.70
2019-06-08T19:21:01.038Z,2.85
2019-06-08T19:23:31.019Z,2.65
2019-06-08T19:26:02.573Z,2.60
2019-06-08T19:28:36.254Z,2.70
2019-06-08T19:31:04.417Z,2.58
2019-06-08T19:33:55.088Z,2.80
2019-06-08T19:36:44.491Z,2.50
2019-06-08T19:39:17.654Z,2.27
2019-06-08T19:41:50.249Z,2.50
2019-06-08T19:46:53.134Z,2.52
2019-06-08T19:49:22.519Z,2.42
2019-06-08T19:51:54.051Z,2.40
2019-06-08T19:54:24.310Z,2.35
2019-06-08T19:56:54.638Z,2.45
2019-06-08T19:59:27.425Z,2.70
2019-06-08T20:04:28.222Z,2.75
2019-06-08T20:07:00.620Z,2.55
2019-06-08T20:09:34.661Z,2.80
2019-06-08T20:12:08.138Z,2.45
2019-06-08T20:14:39.485Z,2.40
2019-06-08T20:17:19.404Z,2.67
2019-06-08T20:19:53.330Z,2.80
2019-06-08T20:22:34.204Z,2.22
2019-06-08T20:25:10.290Z,2.87
2019-06-08T20:27:38.657Z,3.47
2019-06-08T20:30:12.181Z,3.75
2019-06-08T20:32:44.652Z,3.50
2019-06-08T20:35:17.311Z,3.40
2019-06-08T20:40:18.038Z,3.77
2019-06-08T20:42:52.630Z,3.90
2019-06-08T20:45:19.878Z,3.83
2019-06-08T20:47:51.970Z,3.80
2019-06-08T20:50:23.655Z,4.72
2019-06-08T20:52:57.631Z,5.62
2019-06-08T20:55:28.470Z,6.95
2019-06-08T20:57:58.779Z,6.12
2019-06-08T21:00:28.700Z,6.72
2019-06-08T21:03:02.773Z,6.62
2019-06-08T21:05:30.508Z,6.75
2019-06-08T21:08:00.553Z,7.08
2019-06-08T21:10:37.747Z,7.80
2019-06-08T21:13:08.071Z,7.25
2019-06-08T21:15:38.432Z,7.83
2019-06-08T21:18:08.887Z,7.80
2019-06-08T21:23:09.601Z,8.60
2019-06-08T21:25:40.353Z,8.70
2019-06-08T21:28:27.903Z,8.25
2019-06-08T21:31:01.872Z,8.05
2019-06-08T21:36:04.654Z,8.93
2019-06-08T21:38:31.612Z,8.20
2019-06-08T21:41:02.954Z,8.40
2019-06-08T21:43:33.171Z,7.70
2019-06-08T21:46:03.116Z,8.95
2019-06-08T21:48:33.105Z,7.60
2019-06-08T21:51:04.346Z,8.20
2019-06-08T21:53:34.260Z,8.48
2019-06-08T21:56:04.362Z,8.03
2019-06-08T21:58:37.807Z,7.90
2019-06-08T22:17:30.013Z,6.30
2019-06-08T22:43:33.792Z,6.35
2019-06-08T23:06:59.657Z,5.95
2019-06-08T23:15:47.833Z,5.05
2019-06-08T23:18:26.475Z,5.30
2019-06-08T23:21:06.515Z,4.97
2019-06-08T23:24:09.574Z,4.45
2019-06-08T23:26:55.691Z,4.40
2019-06-08T23:42:58.550Z,4.60
2019-06-08T23:46:18.210Z,4.30
2019-06-08T23:49:05.752Z,4.80
2019-06-08T23:52:11.623Z,4.53
2019-06-08T23:58:24.999Z,4.83
